createdAt,value
2022-07-28T00:00:38.779Z,59.92
2022-07-28T00:01:40.377Z,61.24
2022-07-28T00:02:42.129Z,59.17
2022-07-28T00:03:46.035Z,58.15
2022-07-28T00:04:47.810Z,58.77
2022-07-28T00:05:49.887Z,59.68
2022-07-28T00:06:51.721Z,59.47
2022-07-28T00:07:53.464Z,59.22
2022-07-28T00:08:55.170Z,58.73
2022-07-28T00:10:00.373Z,57.56
2022-07-28T00:11:02.486Z,58.08
2022-07-28T00:12:04.393Z,58.09
2022-07-28T00:13:06.879Z,59.05
2022-07-28T00:14:08.681Z,59.21
2022-07-28T00:15:11.184Z,57.72
2022-07-28T00:16:12.977Z,56.13
2022-07-28T00:17:14.627Z,56.01
2022-07-28T00:18:16.380Z,56.27
2022-07-28T00:19:18.270Z,56.54
2022-07-28T00:20:20.928Z,56.57
2022-07-28T00:21:22.687Z,56.96
2022-07-28T00:22:25.039Z,57.08
2022-07-28T00:23:39.106Z,57.25
2022-07-28T00:24:41.314Z,57.32
2022-07-28T00:25:42.888Z,58.16
2022-07-28T00:26:46.640Z,58.38
2022-07-28T00:27:48.609Z,57.71
2022-07-28T00:28:50.277Z,57.58
2022-07-28T00:29:51.816Z,57.77
2022-07-28T00:30:55.331Z,61.12
2022-07-28T00:31:57.431Z,59.69
2022-07-28T00:32:59.190Z,59.80
2022-07-28T00:34:00.856Z,59.29
2022-07-28T00:35:02.542Z,59.07
2022-07-28T00:36:04.625Z,59.91
2022-07-28T00:37:08.227Z,60.27
2022-07-28T00:38:15.093Z,59.58
2022-07-28T00:39:17.093Z,59.69
2022-07-28T00:40:18.720Z,60.59
2022-07-28T00:41:20.696Z,60.73
2022-07-28T00:42:22.347Z,61.33
2022-07-28T00:43:23.923Z,61.12
2022-07-28T00:44:25.482Z,60.46
2022-07-28T00:45:27.048Z,60.35
2022-07-28T00:46:28.776Z,60.02
2022-07-28T00:47:33.773Z,60.05
2022-07-28T00:48:45.555Z,60.65
2022-07-28T00:49:48.220Z,61.04
2022-07-28T00:50:50.028Z,62.72
2022-07-28T00:51:51.693Z,62.54
2022-07-28T00:52:53.674Z,63.11
2022-07-28T00:53:56.430Z,63.63
2022-07-28T00:54:59.112Z,63.52
2022-07-28T00:56:02.610Z,63.56
2022-07-28T00:57:07.529Z,63.64
2022-07-28T00:58:09.938Z,64.88
2022-07-28T00:59:11.532Z,64.53
2022-07-28T01:00:13.442Z,63.38
2022-07-28T01:01:19.696Z,62.68
2022-07-28T01:02:21.847Z,62.13
2022-07-28T01:03:24.671Z,62.21
2022-07-28T01:04:26.875Z,62.68
2022-07-28T01:05:44.484Z,63.32
2022-07-28T01:06:57.690Z,62.82
2022-07-28T01:08:10.366Z,63.09
2022-07-28T01:09:42.054Z,63.72
2022-07-28T01:11:05.702Z,64.28
2022-07-28T01:12:26.276Z,63.64
2022-07-28T01:13:36.960Z,63.75
2022-07-28T01:14:45.503Z,63.02
2022-07-28T01:16:01.595Z,63.20
2022-07-28T01:17:11.599Z,63.58
2022-07-28T01:18:17.698Z,63.37
2022-07-28T01:19:36.167Z,64.06
2022-07-28T01:20:41.913Z,64.16
2022-07-28T01:21:47.070Z,64.33
2022-07-28T01:23:12.924Z,64.69
2022-07-28T01:24:26.368Z,63.91
2022-07-28T01:25:41.123Z,64.21
2022-07-28T01:27:01.064Z,63.81
2022-07-28T01:28:17.727Z,62.90
2022-07-28T01:29:41.226Z,63.29
2022-07-28T01:30:46.372Z,63.77
2022-07-28T01:31:57.099Z,63.84
2022-07-28T01:33:07.076Z,63.16
2022-07-28T01:34:13.293Z,63.37
2022-07-28T01:35:20.835Z,63.02
2022-07-28T01:36:27.766Z,63.15
2022-07-28T01:37:30.907Z,63.24
2022-07-28T01:38:35.331Z,61.48
2022-07-28T01:39:39.678Z,61.79
2022-07-28T01:40:45.544Z,61.04
2022-07-28T01:41:52.514Z,62.19
2022-07-28T01:42:58.972Z,61.40
2022-07-28T01:44:05.932Z,62.25
2022-07-28T01:45:09.092Z,62.16
2022-07-28T01:46:12.710Z,62.64
2022-07-28T01:47:16.127Z,62.68
2022-07-28T01:48:20.562Z,62.92
2022-07-28T01:49:23.663Z,62.55
2022-07-28T01:50:27.224Z,62.34
2022-07-28T01:51:31.107Z,61.14
2022-07-28T01:52:34.481Z,61.88
2022-07-28T01:53:38.335Z,61.48
2022-07-28T01:54:44.320Z,62.24
2022-07-28T01:55:47.681Z,61.48
2022-07-28T01:56:51.929Z,62.48
2022-07-28T01:57:55.518Z,62.19
2022-07-28T01:59:00.495Z,61.89
2022-07-28T02:00:03.783Z,61.93
2022-07-28T02:01:07.002Z,62.76
2022-07-28T02:02:11.085Z,62.12
2022-07-28T02:03:13.962Z,61.05
2022-07-28T02:04:18.139Z,62.69
2022-07-28T02:05:22.232Z,61.57
2022-07-28T02:06:25.126Z,62.30
2022-07-28T02:07:31.565Z,63.24
2022-07-28T02:08:35.745Z,62.23
2022-07-28T02:09:39.159Z,63.10
2022-07-28T02:10:44.009Z,61.85
2022-07-28T02:11:47.721Z,63.07
2022-07-28T02:12:51.581Z,62.69
2022-07-28T02:13:55.308Z,62.22
2022-07-28T02:14:58.329Z,62.40
2022-07-28T02:16:02.533Z,62.08
2022-07-28T02:17:10.999Z,62.51
2022-07-28T02:18:13.094Z,63.21
2022-07-28T02:19:18.239Z,63.83
2022-07-28T02:20:21.272Z,63.78
2022-07-28T02:21:26.622Z,63.47
2022-07-28T02:22:28.364Z,63.01
2022-07-28T02:23:29.937Z,63.00
2022-07-28T02:24:33.720Z,62.96
2022-07-28T02:25:38.321Z,62.97
2022-07-28T02:26:46.436Z,64.03
2022-07-28T02:27:52.435Z,64.79
2022-07-28T02:28:58.063Z,64.26
2022-07-28T02:30:08.824Z,63.00
2022-07-28T02:31:20.188Z,64.04
2022-07-28T02:32:38.838Z,64.19
2022-07-28T02:33:59.942Z,63.81
2022-07-28T02:35:13.710Z,65.61
2022-07-28T02:36:28.269Z,64.66
2022-07-28T02:37:37.785Z,65.37
2022-07-28T02:38:42.176Z,66.03
2022-07-28T02:39:56.545Z,67.70
2022-07-28T02:41:10.609Z,68.10
2022-07-28T02:42:28.288Z,66.34
2022-07-28T02:43:49.137Z,66.22
2022-07-28T02:45:06.922Z,66.47
2022-07-28T02:46:13.765Z,66.59
2022-07-28T02:47:21.786Z,66.86
2022-07-28T02:48:29.636Z,66.64
2022-07-28T02:49:34.033Z,66.43
2022-07-28T02:50:35.749Z,65.65
2022-07-28T02:51:40.573Z,65.73
2022-07-28T02:52:43.441Z,65.69
2022-07-28T02:53:46.224Z,66.46
2022-07-28T02:54:49.611Z,66.99
2022-07-28T02:55:52.785Z,67.09
2022-07-28T02:56:57.704Z,67.72
2022-07-28T02:58:00.815Z,68.11
2022-07-28T02:59:09.124Z,68.43
2022-07-28T03:00:11.604Z,68.12
2022-07-28T03:01:17.477Z,67.87
2022-07-28T03:02:22.905Z,68.79
2022-07-28T03:03:25.241Z,70.36
2022-07-28T03:04:47.014Z,70.19
2022-07-28T03:05:49.481Z,70.31
2022-07-28T03:06:51.075Z,69.43
2022-07-28T03:07:52.828Z,69.56
2022-07-28T03:08:54.528Z,69.13
2022-07-28T03:09:56.550Z,69.99
2022-07-28T03:11:12.098Z,70.09
2022-07-28T03:12:15.076Z,69.84
2022-07-28T03:13:16.715Z,70.41
2022-07-28T03:14:18.383Z,70.00
2022-07-28T03:15:20.108Z,70.45
2022-07-28T03:16:21.823Z,71.34
2022-07-28T03:17:24.535Z,71.28
2022-07-28T03:18:28.952Z,71.30
2022-07-28T03:19:30.969Z,70.83
2022-07-28T03:20:33.577Z,70.11
2022-07-28T03:21:35.146Z,70.40
2022-07-28T03:22:36.800Z,69.39
2022-07-28T03:23:43.253Z,69.30
2022-07-28T03:24:49.586Z,69.96
2022-07-28T03:25:54.889Z,70.03
2022-07-28T03:27:19.390Z,71.21
2022-07-28T03:28:21.993Z,70.06
2022-07-28T03:29:25.667Z,70.91
2022-07-28T03:30:31.830Z,71.47
2022-07-28T03:31:35.848Z,71.97
2022-07-28T03:32:42.044Z,72.39
2022-07-28T03:33:43.600Z,72.58
2022-07-28T03:34:45.261Z,72.97
2022-07-28T03:35:50.971Z,72.78
2022-07-28T03:37:01.993Z,73.46
2022-07-28T03:38:15.651Z,73.52
2022-07-28T03:39:21.402Z,74.51
2022-07-28T03:40:26.998Z,74.57
2022-07-28T03:41:30.008Z,74.61
2022-07-28T03:42:33.704Z,74.35
2022-07-28T03:43:36.111Z,74.09
2022-07-28T03:44:39.586Z,74.83
2022-07-28T03:45:41.775Z,74.55
2022-07-28T03:46:48.270Z,74.75
2022-07-28T03:47:55.020Z,74.53
2022-07-28T03:48:56.607Z,75.37
2022-07-28T03:49:58.225Z,75.55
2022-07-28T03:50:59.887Z,75.41
2022-07-28T03:52:01.625Z,75.99
2022-07-28T03:53:03.325Z,76.32
2022-07-28T03:54:04.924Z,75.83
2022-07-28T03:55:07.787Z,75.79
2022-07-28T03:56:09.366Z,75.93
2022-07-28T03:57:11.173Z,76.28
2022-07-28T03:58:12.810Z,76.41
2022-07-28T03:59:14.518Z,76.12
2022-07-28T04:00:17.558Z,76.52
2022-07-28T04:01:19.293Z,75.40
2022-07-28T04:02:20.930Z,75.20
2022-07-28T04:03:43.210Z,75.71
2022-07-28T04:04:44.346Z,76.88
2022-07-28T04:05:47.367Z,77.09
2022-07-28T04:06:52.054Z,77.59
2022-07-28T04:07:53.586Z,77.56
2022-07-28T04:08:55.104Z,78.98
2022-07-28T04:09:56.702Z,77.59
2022-07-28T04:10:58.405Z,77.43
2022-07-28T04:12:00.060Z,78.05
2022-07-28T04:13:01.908Z,78.15
2022-07-28T04:14:03.465Z,77.57
2022-07-28T04:15:13.312Z,77.92
2022-07-28T04:16:15.029Z,77.46
2022-07-28T04:17:16.688Z,77.24
2022-07-28T04:18:19.559Z,77.47
2022-07-28T04:19:21.103Z,77.30
2022-07-28T04:20:25.027Z,77.26
2022-07-28T04:21:26.801Z,77.62
2022-07-28T04:22:28.335Z,78.01
2022-07-28T04:23:30.853Z,78.17
2022-07-28T04:24:32.641Z,78.85
2022-07-28T04:25:34.223Z,78.11
2022-07-28T04:26:35.808Z,76.41
2022-07-28T04:27:37.560Z,76.99
2022-07-28T04:28:39.202Z,77.54
2022-07-28T04:29:40.803Z,77.89
2022-07-28T04:30:44.286Z,77.30
2022-07-28T04:31:46.450Z,77.42
2022-07-28T04:32:49.758Z,77.10
2022-07-28T04:33:51.318Z,77.30
2022-07-28T04:34:52.944Z,77.57
2022-07-28T04:35:54.571Z,78.81
2022-07-28T04:36:56.470Z,79.17
2022-07-28T04:38:01.094Z,78.72
2022-07-28T04:39:03.329Z,78.73
2022-07-28T04:40:09.598Z,78.73
2022-07-28T04:41:11.283Z,78.65
2022-07-28T04:42:12.905Z,78.75
2022-07-28T04:43:15.051Z,79.05
2022-07-28T04:44:17.761Z,79.47
2022-07-28T04:45:19.891Z,79.20
2022-07-28T04:46:21.530Z,80.39
2022-07-28T04:47:24.507Z,79.56
2022-07-28T04:48:26.198Z,80.91
2022-07-28T04:49:27.789Z,79.78
2022-07-28T04:50:29.493Z,78.78
2022-07-28T04:51:31.088Z,78.29
2022-07-28T04:52:33.846Z,80.37
2022-07-28T04:53:35.678Z,79.29
2022-07-28T04:54:38.040Z,78.82
2022-07-28T04:55:39.756Z,78.87
2022-07-28T04:56:41.363Z,78.72
2022-07-28T04:57:43.520Z,78.09
2022-07-28T04:58:45.304Z,78.02
2022-07-28T04:59:46.973Z,78.18
2022-07-28T05:00:50.474Z,78.54
2022-07-28T05:01:52.454Z,77.55
2022-07-28T05:02:54.036Z,75.73
2022-07-28T05:03:55.655Z,75.50
2022-07-28T05:04:57.294Z,75.20
2022-07-28T05:05:58.904Z,74.70
2022-07-28T05:07:00.515Z,75.27
2022-07-28T05:08:02.063Z,74.65
2022-07-28T05:09:03.849Z,74.68
2022-07-28T05:10:07.210Z,74.71
2022-07-28T05:11:09.393Z,73.96
2022-07-28T05:12:11.529Z,73.55
2022-07-28T05:13:13.118Z,73.09
2022-07-28T05:14:15.671Z,72.60
2022-07-28T05:15:17.542Z,73.54
2022-07-28T05:16:20.057Z,73.43
2022-07-28T05:17:21.674Z,73.23
2022-07-28T05:18:23.294Z,73.50
2022-07-28T05:19:24.975Z,72.88
2022-07-28T05:20:26.586Z,74.05
2022-07-28T05:21:28.221Z,74.13
2022-07-28T05:22:30.731Z,73.65
2022-07-28T05:23:32.670Z,72.21
2022-07-28T05:24:34.329Z,71.73
2022-07-28T05:25:37.221Z,71.99
2022-07-28T05:26:38.892Z,71.71
2022-07-28T05:27:40.447Z,71.82
2022-07-28T05:28:42.084Z,71.40
2022-07-28T05:29:47.679Z,70.83
2022-07-28T05:30:49.664Z,71.33
2022-07-28T05:31:51.245Z,71.55
2022-07-28T05:32:53.860Z,72.13
2022-07-28T05:33:55.527Z,71.83
2022-07-28T05:34:59.363Z,72.02
2022-07-28T05:36:01.264Z,71.72
2022-07-28T05:37:02.861Z,71.54
2022-07-28T05:38:08.934Z,71.24
2022-07-28T05:39:12.437Z,71.32
2022-07-28T05:40:15.822Z,70.00
2022-07-28T05:41:17.617Z,70.83
2022-07-28T05:42:19.159Z,71.34
2022-07-28T05:43:21.128Z,71.25
2022-07-28T05:44:22.751Z,70.74
2022-07-28T05:45:24.588Z,69.83
2022-07-28T05:46:26.224Z,69.74
2022-07-28T05:47:27.811Z,70.22
2022-07-28T05:48:30.289Z,70.58
2022-07-28T05:49:31.872Z,69.32
2022-07-28T05:50:33.589Z,69.04
2022-07-28T05:51:38.411Z,69.94
2022-07-28T05:52:44.026Z,68.48
2022-07-28T05:53:45.696Z,67.75
2022-07-28T05:54:47.316Z,66.96
2022-07-28T05:56:00.015Z,67.45
2022-07-28T05:57:02.559Z,66.82
2022-07-28T05:58:04.157Z,67.38
2022-07-28T05:59:09.798Z,67.73
2022-07-28T06:00:17.393Z,68.41
2022-07-28T06:01:19.077Z,68.57
2022-07-28T06:02:20.760Z,68.21
2022-07-28T06:03:22.368Z,67.76
2022-07-28T06:04:27.872Z,67.86
2022-07-28T06:05:31.325Z,65.74
2022-07-28T06:06:32.969Z,65.57
2022-07-28T06:07:42.733Z,66.14
2022-07-28T06:08:47.352Z,66.41
2022-07-28T06:09:48.933Z,66.23
2022-07-28T06:11:09.232Z,65.55
2022-07-28T06:12:10.854Z,65.61
2022-07-28T06:13:14.352Z,65.73
2022-07-28T06:14:16.177Z,64.82
2022-07-28T06:15:21.564Z,64.42
2022-07-28T06:16:23.565Z,64.15
2022-07-28T06:17:25.260Z,63.88
2022-07-28T06:18:26.880Z,63.14
2022-07-28T06:19:28.447Z,62.52
2022-07-28T06:20:30.242Z,62.43
2022-07-28T06:21:33.004Z,61.21
2022-07-28T06:22:45.952Z,61.15
2022-07-28T06:23:47.610Z,61.24
2022-07-28T06:24:49.302Z,60.53
2022-07-28T06:25:52.037Z,60.15
2022-07-28T06:26:53.596Z,59.44
2022-07-28T06:27:57.862Z,59.73
2022-07-28T06:28:59.493Z,59.52
2022-07-28T06:30:01.064Z,59.11
2022-07-28T06:31:02.669Z,58.45
2022-07-28T06:32:04.862Z,58.30
2022-07-28T06:33:07.808Z,57.86
2022-07-28T06:34:09.362Z,59.07
2022-07-28T06:35:14.664Z,59.73
2022-07-28T06:36:16.316Z,59.25
2022-07-28T06:37:17.882Z,58.66
2022-07-28T06:38:20.666Z,57.85
2022-07-28T06:39:22.245Z,58.29
2022-07-28T06:40:24.074Z,56.60
2022-07-28T06:41:25.743Z,56.61
2022-07-28T06:42:27.662Z,57.04
2022-07-28T06:43:29.225Z,56.06
2022-07-28T06:44:54.866Z,56.17
2022-07-28T06:45:52.312Z,55.58
2022-07-28T06:46:54.225Z,54.89
2022-07-28T06:47:55.918Z,54.59
2022-07-28T06:48:57.547Z,54.31
2022-07-28T06:49:59.829Z,54.12
2022-07-28T06:51:01.514Z,53.84
2022-07-28T06:52:03.281Z,53.56
2022-07-28T06:53:05.225Z,53.14
2022-07-28T06:54:11.075Z,53.01
2022-07-28T06:55:16.021Z,53.19
2022-07-28T06:56:19.571Z,53.19
2022-07-28T06:57:23.262Z,53.19
2022-07-28T06:58:34.726Z,53.22
2022-07-28T06:59:36.317Z,52.62
2022-07-28T07:00:38.051Z,52.16
2022-07-28T07:01:39.691Z,52.44
2022-07-28T07:02:41.855Z,52.60
2022-07-28T07:03:43.995Z,52.03
2022-07-28T07:04:45.993Z,53.31
2022-07-28T07:05:51.545Z,51.53
2022-07-28T07:06:54.986Z,50.89
2022-07-28T07:07:56.577Z,49.22
2022-07-28T07:08:58.363Z,48.83
2022-07-28T07:09:59.994Z,48.16
2022-07-28T07:11:01.588Z,47.64
2022-07-28T07:12:04.253Z,46.56
2022-07-28T07:13:05.819Z,46.60
2022-07-28T07:14:07.424Z,46.21
2022-07-28T07:15:09.744Z,45.86
2022-07-28T07:16:11.359Z,45.60
2022-07-28T07:17:13.040Z,46.35
2022-07-28T07:18:14.684Z,45.34
2022-07-28T07:19:16.498Z,44.71
2022-07-28T07:20:18.484Z,44.44
2022-07-28T07:21:20.462Z,43.11
2022-07-28T07:22:24.324Z,42.68
2022-07-28T07:23:25.968Z,41.99
2022-07-28T07:24:27.533Z,42.00
2022-07-28T07:25:29.971Z,41.82
2022-07-28T07:26:31.656Z,41.10
2022-07-28T07:27:33.243Z,40.03
2022-07-28T07:28:34.878Z,40.05
2022-07-28T07:29:36.451Z,39.76
2022-07-28T07:30:38.144Z,39.19
2022-07-28T07:31:40.314Z,38.38
2022-07-28T07:32:42.272Z,37.99
2022-07-28T07:33:43.905Z,38.12
2022-07-28T07:34:45.846Z,38.38
2022-07-28T07:35:47.473Z,37.05
2022-07-28T07:36:48.990Z,36.87
2022-07-28T07:37:50.638Z,36.62
2022-07-28T07:38:52.207Z,36.79
2022-07-28T07:39:54.737Z,36.35
2022-07-28T07:40:56.614Z,36.59
2022-07-28T07:41:58.205Z,35.26
2022-07-28T07:43:00.080Z,35.20
2022-07-28T07:44:01.766Z,34.89
2022-07-28T07:45:04.049Z,35.53
2022-07-28T07:46:07.236Z,34.51
2022-07-28T07:47:09.726Z,34.70
2022-07-28T07:48:11.473Z,35.50
2022-07-28T07:49:13.162Z,35.10
2022-07-28T07:50:14.887Z,33.98
2022-07-28T07:51:16.482Z,34.39
2022-07-28T07:52:18.270Z,35.39
2022-07-28T07:53:19.829Z,36.03
2022-07-28T07:54:21.863Z,36.24
2022-07-28T07:55:23.430Z,35.77
2022-07-28T07:56:24.986Z,35.17
2022-07-28T07:57:26.608Z,33.92
2022-07-28T07:58:28.314Z,34.38
2022-07-28T07:59:30.795Z,34.76
2022-07-28T08:00:32.569Z,34.57
2022-07-28T08:01:34.258Z,35.18
2022-07-28T08:02:39.476Z,34.48
2022-07-28T08:03:42.575Z,33.47
2022-07-28T08:04:44.293Z,33.91
2022-07-28T08:05:46.419Z,32.97
2022-07-28T08:06:51.931Z,33.80
2022-07-28T08:07:53.542Z,33.79
2022-07-28T08:08:55.954Z,34.85
2022-07-28T08:09:57.507Z,33.70
2022-07-28T08:10:59.077Z,33.37
2022-07-28T08:12:00.888Z,32.82
2022-07-28T08:13:03.327Z,33.77
2022-07-28T08:14:04.941Z,33.67
2022-07-28T08:15:07.386Z,34.30
2022-07-28T08:16:09.193Z,35.26
2022-07-28T08:17:10.747Z,34.86
2022-07-28T08:18:12.380Z,33.84
2022-07-28T08:19:13.978Z,34.67
2022-07-28T08:20:15.660Z,33.77
2022-07-28T08:21:17.809Z,34.51
2022-07-28T08:22:22.080Z,32.83
2022-07-28T08:23:26.267Z,33.62
2022-07-28T08:24:33.680Z,34.25
2022-07-28T08:25:38.584Z,36.36
2022-07-28T08:26:40.202Z,35.57
2022-07-28T08:27:41.807Z,35.54
2022-07-28T08:28:43.629Z,33.15
2022-07-28T08:29:45.281Z,33.98
2022-07-28T08:30:46.919Z,33.74
2022-07-28T08:31:48.950Z,34.14
2022-07-28T08:32:56.403Z,32.87
2022-07-28T08:33:58.854Z,34.17
2022-07-28T08:35:30.461Z,32.90
2022-07-28T08:36:22.807Z,32.59
2022-07-28T08:37:24.408Z,32.33
2022-07-28T08:38:26.348Z,33.04
2022-07-28T08:39:28.511Z,32.22
2022-07-28T08:40:32.654Z,32.44
2022-07-28T08:41:46.769Z,34.74
2022-07-28T08:42:48.280Z,35.56
2022-07-28T08:43:52.967Z,34.95
2022-07-28T08:45:06.065Z,35.26
2022-07-28T08:46:07.723Z,36.10
2022-07-28T08:47:12.836Z,37.86
2022-07-28T08:48:14.692Z,36.72
2022-07-28T08:49:17.460Z,36.14
2022-07-28T08:50:24.347Z,37.06
2022-07-28T08:51:27.882Z,36.36
2022-07-28T08:52:31.270Z,34.46
2022-07-28T08:53:35.679Z,34.29
2022-07-28T08:54:41.649Z,33.93
2022-07-28T08:55:43.850Z,35.31
2022-07-28T08:56:47.980Z,37.27
2022-07-28T08:57:50.861Z,37.39
2022-07-28T08:58:53.026Z,37.84
2022-07-28T08:59:54.939Z,37.57
2022-07-28T09:00:57.400Z,36.36
2022-07-28T09:01:59.278Z,37.71
2022-07-28T09:03:03.563Z,39.39
2022-07-28T09:04:07.335Z,38.02
2022-07-28T09:05:09.564Z,39.02
2022-07-28T09:06:11.760Z,39.73
2022-07-28T09:07:14.095Z,40.29
2022-07-28T09:08:19.049Z,41.16
2022-07-28T09:09:21.612Z,41.89
2022-07-28T09:10:23.449Z,42.35
2022-07-28T09:11:28.080Z,40.76
2022-07-28T09:12:29.760Z,40.27
2022-07-28T09:13:31.313Z,38.24
2022-07-28T09:14:34.101Z,37.75
2022-07-28T09:15:37.630Z,37.86
2022-07-28T09:16:39.337Z,38.25
2022-07-28T09:17:42.153Z,36.14
2022-07-28T09:18:44.267Z,36.94
2022-07-28T09:19:45.894Z,35.77
2022-07-28T09:20:47.558Z,37.59
2022-07-28T09:21:49.526Z,36.32
2022-07-28T09:23:03.145Z,37.13
2022-07-28T09:24:05.136Z,37.53
2022-07-28T09:25:18.542Z,38.19
2022-07-28T09:26:20.328Z,38.62
2022-07-28T09:27:21.881Z,38.67
2022-07-28T09:28:23.947Z,38.34
2022-07-28T09:29:25.551Z,37.19
2022-07-28T09:30:32.214Z,37.59
2022-07-28T09:31:33.884Z,37.18
2022-07-28T09:32:36.130Z,36.98
2022-07-28T09:33:41.731Z,36.70
2022-07-28T09:34:51.803Z,36.44
2022-07-28T09:35:56.450Z,36.95
2022-07-28T09:36:58.192Z,37.60
2022-07-28T09:37:59.899Z,37.84
2022-07-28T09:39:01.575Z,37.33
2022-07-28T09:40:11.381Z,37.72
2022-07-28T09:41:13.231Z,37.31
2022-07-28T09:42:15.254Z,36.05
2022-07-28T09:43:16.803Z,34.59
2022-07-28T09:44:22.731Z,35.12
2022-07-28T09:45:28.016Z,35.05
2022-07-28T09:46:30.544Z,34.92
2022-07-28T09:47:34.236Z,33.30
2022-07-28T09:48:50.264Z,33.10
2022-07-28T09:49:52.557Z,33.98
2022-07-28T09:51:14.865Z,33.34
2022-07-28T09:52:38.170Z,33.36
2022-07-28T09:53:40.149Z,31.44
2022-07-28T09:55:03.469Z,32.09
2022-07-28T09:56:05.168Z,31.29
2022-07-28T09:57:10.459Z,32.80
2022-07-28T09:58:12.099Z,30.68
2022-07-28T09:59:14.818Z,30.67
2022-07-28T10:00:28.342Z,33.01
2022-07-28T10:01:35.827Z,32.90
2022-07-28T10:02:39.553Z,33.09
2022-07-28T10:03:43.088Z,33.58
2022-07-28T10:04:44.836Z,32.41
2022-07-28T10:05:53.780Z,32.69
2022-07-28T10:07:03.824Z,32.24
2022-07-28T10:08:06.466Z,32.87
2022-07-28T10:09:12.606Z,33.41
2022-07-28T10:10:14.204Z,33.73
2022-07-28T10:11:18.494Z,34.96
2022-07-28T10:12:24.979Z,35.10
2022-07-28T10:13:26.640Z,35.05
2022-07-28T10:14:32.767Z,33.90
2022-07-28T10:15:52.849Z,35.69
2022-07-28T10:16:54.640Z,35.65
2022-07-28T10:17:56.351Z,34.68
2022-07-28T10:18:59.984Z,33.87
2022-07-28T10:20:06.933Z,34.54
2022-07-28T10:21:10.121Z,33.13
2022-07-28T10:22:11.827Z,33.67
2022-07-28T10:23:15.013Z,34.62
2022-07-28T10:24:23.807Z,35.04
2022-07-28T10:25:29.744Z,35.25
2022-07-28T10:26:36.771Z,36.33
2022-07-28T10:27:41.401Z,36.30
2022-07-28T10:28:51.218Z,36.97
2022-07-28T10:29:59.513Z,36.19
2022-07-28T10:31:03.530Z,36.73
2022-07-28T10:32:07.008Z,36.04
2022-07-28T10:33:14.785Z,35.82
2022-07-28T10:34:44.653Z,35.06
2022-07-28T10:35:54.336Z,34.22
2022-07-28T10:36:59.520Z,34.99
2022-07-28T10:38:12.719Z,36.37
2022-07-28T10:39:21.975Z,34.91
2022-07-28T10:40:27.715Z,34.97
2022-07-28T10:41:39.648Z,35.25
2022-07-28T10:42:41.687Z,35.74
2022-07-28T10:43:45.648Z,36.25
2022-07-28T10:44:47.972Z,36.90
2022-07-28T10:46:06.906Z,36.79
2022-07-28T10:47:10.258Z,36.86
2022-07-28T10:48:21.696Z,37.71
2022-07-28T10:49:32.628Z,38.08
2022-07-28T10:50:35.632Z,37.13
2022-07-28T10:51:59.855Z,36.61
2022-07-28T10:53:03.788Z,36.21
2022-07-28T10:54:25.973Z,36.38
2022-07-28T10:55:57.771Z,37.36
2022-07-28T10:57:04.796Z,36.61
2022-07-28T10:58:35.229Z,34.43
2022-07-28T10:59:58.094Z,34.16
2022-07-28T11:01:06.021Z,34.11
2022-07-28T11:02:08.401Z,35.65
2022-07-28T11:03:14.002Z,34.47
2022-07-28T11:04:41.678Z,35.05
2022-07-28T11:05:44.118Z,33.77
2022-07-28T11:06:47.986Z,33.21
2022-07-28T11:07:50.442Z,32.85
2022-07-28T11:08:52.768Z,33.22
2022-07-28T11:10:15.298Z,31.75
2022-07-28T11:11:42.663Z,31.79
2022-07-28T11:12:46.740Z,32.67
2022-07-28T11:13:50.364Z,32.74
2022-07-28T11:14:53.169Z,32.04
2022-07-28T11:15:55.885Z,32.87
2022-07-28T11:17:00.358Z,33.35
2022-07-28T11:18:06.674Z,33.73
2022-07-28T11:19:40.258Z,35.23
2022-07-28T11:20:51.659Z,35.96
2022-07-28T11:22:19.395Z,34.66
2022-07-28T11:23:47.585Z,35.29
2022-07-28T11:25:19.785Z,35.01
2022-07-28T11:26:22.908Z,34.45
2022-07-28T11:27:39.767Z,34.76
2022-07-28T11:29:00.224Z,32.90
2022-07-28T11:30:01.896Z,33.85
2022-07-28T11:31:03.659Z,33.47
2022-07-28T11:32:05.679Z,34.08
2022-07-28T11:33:09.428Z,34.34
2022-07-28T11:34:11.821Z,33.79
2022-07-28T11:35:13.643Z,35.06
2022-07-28T11:36:15.340Z,35.03
2022-07-28T11:37:16.896Z,34.25
2022-07-28T11:38:18.728Z,33.30
2022-07-28T11:39:24.286Z,35.02
2022-07-28T11:40:33.848Z,31.87
2022-07-28T11:41:35.655Z,33.49
2022-07-28T11:42:37.285Z,33.95
2022-07-28T11:43:41.400Z,33.43
2022-07-28T11:44:43.841Z,33.23
2022-07-28T11:45:51.448Z,34.40
2022-07-28T11:47:16.673Z,35.25
2022-07-28T11:48:25.201Z,33.99
2022-07-28T11:49:27.704Z,34.47
2022-07-28T11:50:30.378Z,34.44
2022-07-28T11:51:38.772Z,35.32
2022-07-28T11:52:54.902Z,34.31
2022-07-28T11:53:56.583Z,34.73
2022-07-28T11:55:01.500Z,33.51
2022-07-28T11:56:05.490Z,33.28
2022-07-28T11:57:09.905Z,35.17
2022-07-28T11:58:24.583Z,35.62
2022-07-28T11:59:36.666Z,35.88
2022-07-28T12:00:39.017Z,36.21
2022-07-28T12:01:53.179Z,35.66
2022-07-28T12:02:55.643Z,35.69
2022-07-28T12:03:59.369Z,36.57
2022-07-28T12:05:08.648Z,35.98
2022-07-28T12:06:11.602Z,36.99
2022-07-28T12:07:16.027Z,35.83
2022-07-28T12:08:18.816Z,35.99
2022-07-28T12:09:25.617Z,35.89
2022-07-28T12:11:57.437Z,36.83
2022-07-28T12:13:10.218Z,37.01
2022-07-28T12:14:14.968Z,36.93
2022-07-28T12:15:17.360Z,36.85
2022-07-28T12:16:19.250Z,35.84
2022-07-28T12:17:22.912Z,37.08
2022-07-28T12:18:24.807Z,36.50
2022-07-28T12:19:32.873Z,34.46
2022-07-28T12:20:34.822Z,35.30
2022-07-28T12:21:46.371Z,34.37
2022-07-28T12:23:08.959Z,33.49
2022-07-28T12:24:12.944Z,32.92
2022-07-28T12:25:14.513Z,33.04
2022-07-28T12:26:40.498Z,32.59
2022-07-28T12:27:48.077Z,32.82
2022-07-28T12:28:50.533Z,31.82
2022-07-28T12:30:02.598Z,31.40
2022-07-28T12:31:14.925Z,32.31
2022-07-28T12:32:17.559Z,32.17
2022-07-28T12:33:29.329Z,31.33
2022-07-28T12:34:35.043Z,31.97
2022-07-28T12:35:36.801Z,33.96
2022-07-28T12:36:38.875Z,33.18
2022-07-28T12:37:42.940Z,31.81
2022-07-28T12:38:45.691Z,34.11
2022-07-28T12:39:51.150Z,33.64
2022-07-28T12:40:54.035Z,32.40
2022-07-28T12:42:03.178Z,32.15
2022-07-28T12:43:04.830Z,33.54
2022-07-28T12:44:06.869Z,33.31
2022-07-28T12:45:10.180Z,33.06
2022-07-28T12:46:11.841Z,33.62
2022-07-28T12:47:15.413Z,32.95
2022-07-28T12:48:18.854Z,34.03
2022-07-28T12:49:21.947Z,32.36
2022-07-28T12:50:23.572Z,32.25
2022-07-28T12:51:38.542Z,32.26
2022-07-28T12:52:42.015Z,31.64
2022-07-28T12:53:52.758Z,31.91
2022-07-28T12:54:56.442Z,32.53
2022-07-28T12:56:02.413Z,31.72
2022-07-28T12:57:04.818Z,33.13
2022-07-28T12:58:07.046Z,31.01
2022-07-28T12:59:10.425Z,31.64
2022-07-28T13:00:12.312Z,31.90
2022-07-28T13:01:14.586Z,31.52
2022-07-28T13:02:16.992Z,31.57
2022-07-28T13:03:27.359Z,31.53
2022-07-28T13:04:49.170Z,33.56
2022-07-28T13:06:03.524Z,32.08
2022-07-28T13:07:12.883Z,33.22
2022-07-28T13:08:14.555Z,33.05
2022-07-28T13:09:32.775Z,32.30
2022-07-28T13:10:46.106Z,32.71
2022-07-28T13:11:48.107Z,33.85
2022-07-28T13:13:00.851Z,34.64
2022-07-28T13:14:02.676Z,34.71
2022-07-28T13:15:14.375Z,35.09
2022-07-28T13:16:17.054Z,34.63
2022-07-28T13:17:21.037Z,33.68
2022-07-28T13:18:42.563Z,33.44
2022-07-28T13:19:45.458Z,34.10
2022-07-28T13:20:53.951Z,34.25
2022-07-28T13:22:01.551Z,32.73
2022-07-28T13:23:04.551Z,34.24
2022-07-28T13:24:06.504Z,34.90
2022-07-28T13:25:08.543Z,34.26
2022-07-28T13:26:10.222Z,34.25
2022-07-28T13:27:11.764Z,33.97
2022-07-28T13:28:29.156Z,33.69
2022-07-28T13:29:35.406Z,33.02
2022-07-28T13:30:36.987Z,33.74
2022-07-28T13:31:39.002Z,33.62
2022-07-28T13:32:40.623Z,34.34
2022-07-28T13:33:43.565Z,34.60
2022-07-28T13:34:45.601Z,34.04
2022-07-28T13:35:49.575Z,33.96
2022-07-28T13:36:52.370Z,33.95
2022-07-28T13:37:53.958Z,35.70
2022-07-28T13:38:55.626Z,34.12
2022-07-28T13:39:57.329Z,33.89
2022-07-28T13:40:59.073Z,34.12
2022-07-28T13:42:00.768Z,35.64
2022-07-28T13:43:11.269Z,37.01
2022-07-28T13:44:13.723Z,34.96
2022-07-28T13:45:17.187Z,33.98
2022-07-28T13:46:23.232Z,33.85
2022-07-28T13:47:26.937Z,33.79
2022-07-28T13:48:40.341Z,33.11
2022-07-28T13:49:59.816Z,34.32
2022-07-28T13:51:01.511Z,33.79
2022-07-28T13:52:13.221Z,34.72
2022-07-28T13:53:33.532Z,33.28
2022-07-28T13:54:35.178Z,32.45
2022-07-28T13:55:37.593Z,32.90
2022-07-28T13:56:43.272Z,32.63
2022-07-28T13:57:44.880Z,32.78
2022-07-28T13:58:50.756Z,33.70